sensor_id;sensor_type;location;lat;lon;timestamp;temperature;humidity
18101;DHT22;9177;49.156;8.142;2024-03-02T00:01:25;19.90;88.10
18101;DHT22;9177;49.156;8.142;2024-03-02T00:03:52;19.90;88.00
18101;DHT22;9177;49.156;8.142;2024-03-02T00:06:20;19.80;88.00
18101;DHT22;9177;49.156;8.142;2024-03-02T00:08:48;19.80;87.90
18101;DHT22;9177;49.156;8.142;2024-03-02T00:11:17;19.80;88.10
18101;DHT22;9177;49.156;8.142;2024-03-02T00:13:48;19.80;88.10
18101;DHT22;9177;49.156;8.142;2024-03-02T00:16:14;19.80;88.00
18101;DHT22;9177;49.156;8.142;2024-03-02T00:18:44;19.80;87.90
18101;DHT22;9177;49.156;8.142;2024-03-02T00:21:10;19.80;88.80
18101;DHT22;9177;49.156;8.142;2024-03-02T00:23:38;19.80;88.80
18101;DHT22;9177;49.156;8.142;2024-03-02T00:26:05;19.80;88.00
18101;DHT22;9177;49.156;8.142;2024-03-02T00:28:36;19.80;88.00
18101;DHT22;9177;49.156;8.142;2024-03-02T00:31:05;19.80;88.00
18101;DHT22;9177;49.156;8.142;2024-03-02T00:33:34;19.80;88.00
18101;DHT22;9177;49.156;8.142;2024-03-02T00:36:01;19.80;88.00
18101;DHT22;9177;49.156;8.142;2024-03-02T00:38:29;19.80;87.90
18101;DHT22;9177;49.156;8.142;2024-03-02T00:40:57;19.80;87.90
18101;DHT22;9177;49.156;8.142;2024-03-02T00:43:47;19.80;87.90
18101;DHT22;9177;49.156;8.142;2024-03-02T00:46:17;19.80;88.70
18101;DHT22;9177;49.156;8.142;2024-03-02T00:48:50;19.80;87.80
18101;DHT22;9177;49.156;8.142;2024-03-02T00:51:18;19.80;87.90
18101;DHT22;9177;49.156;8.142;2024-03-02T00:53:45;19.80;87.80
18101;DHT22;9177;49.156;8.142;2024-03-02T00:56:12;19.80;87.80
18101;DHT22;9177;49.156;8.142;2024-03-02T00:58:39;19.80;87.80
18101;DHT22;9177;49.156;8.142;2024-03-02T01:01:08;19.80;88.60
18101;DHT22;9177;49.156;8.142;2024-03-02T01:03:35;19.80;87.80
18101;DHT22;9177;49.156;8.142;2024-03-02T01:06:03;19.80;87.80
18101;DHT22;9177;49.156;8.142;2024-03-02T01:08:30;19.80;87.90
18101;DHT22;9177;49.156;8.142;2024-03-02T01:10:57;19.80;87.80
18101;DHT22;9177;49.156;8.142;2024-03-02T01:13:24;19.80;88.00
18101;DHT22;9177;49.156;8.142;2024-03-02T01:15:52;19.80;87.80
18101;DHT22;9177;49.156;8.142;2024-03-02T01:18:20;19.80;87.70
18101;DHT22;9177;49.156;8.142;2024-03-02T01:20:47;19.80;87.70
18101;DHT22;9177;49.156;8.142;2024-03-02T01:23:17;19.80;87.70
18101;DHT22;9177;49.156;8.142;2024-03-02T01:25:45;19.80;87.80
18101;DHT22;9177;49.156;8.142;2024-03-02T01:28:12;19.70;87.70
18101;DHT22;9177;49.156;8.142;2024-03-02T01:30:39;19.70;87.70
18101;DHT22;9177;49.156;8.142;2024-03-02T01:33:05;19.70;87.60
18101;DHT22;9177;49.156;8.142;2024-03-02T01:35:34;19.70;87.60
18101;DHT22;9177;49.156;8.142;2024-03-02T01:38:01;19.70;87.60
18101;DHT22;9177;49.156;8.142;2024-03-02T01:40:28;19.70;87.60
18101;DHT22;9177;49.156;8.142;2024-03-02T01:42:55;19.70;87.60
18101;DHT22;9177;49.156;8.142;2024-03-02T01:45:23;19.70;87.50
18101;DHT22;9177;49.156;8.142;2024-03-02T01:47:50;19.70;87.50
18101;DHT22;9177;49.156;8.142;2024-03-02T01:50:25;19.70;87.50
18101;DHT22;9177;49.156;8.142;2024-03-02T01:52:53;19.70;87.40
18101;DHT22;9177;49.156;8.142;2024-03-02T01:55:20;19.70;87.40
18101;DHT22;9177;49.156;8.142;2024-03-02T01:57:47;19.70;87.40
18101;DHT22;9177;49.156;8.142;2024-03-02T02:00:15;19.70;87.40
18101;DHT22;9177;49.156;8.142;2024-03-02T02:02:42;19.70;87.40
18101;DHT22;9177;49.156;8.142;2024-03-02T02:05:09;19.70;87.30
18101;DHT22;9177;49.156;8.142;2024-03-02T02:07:36;19.70;87.30
18101;DHT22;9177;49.156;8.142;2024-03-02T02:10:05;19.70;87.40
18101;DHT22;9177;49.156;8.142;2024-03-02T02:12:33;19.70;87.30
18101;DHT22;9177;49.156;8.142;2024-03-02T02:15:00;19.70;87.30
18101;DHT22;9177;49.156;8.142;2024-03-02T02:17:27;19.70;87.30
18101;DHT22;9177;49.156;8.142;2024-03-02T02:19:54;19.70;87.20
18101;DHT22;9177;49.156;8.142;2024-03-02T02:22:22;19.70;87.20
18101;DHT22;9177;49.156;8.142;2024-03-02T02:24:49;19.70;87.30
18101;DHT22;9177;49.156;8.142;2024-03-02T02:27:16;19.70;87.20
18101;DHT22;9177;49.156;8.142;2024-03-02T02:29:43;19.70;87.30
18101;DHT22;9177;49.156;8.142;2024-03-02T02:32:10;19.70;87.20
18101;DHT22;9177;49.156;8.142;2024-03-02T02:34:36;19.70;87.10
18101;DHT22;9177;49.156;8.142;2024-03-02T02:37:03;19.70;87.10
18101;DHT22;9177;49.156;8.142;2024-03-02T02:39:32;19.70;87.10
18101;DHT22;9177;49.156;8.142;2024-03-02T02:41:59;19.70;87.20
18101;DHT22;9177;49.156;8.142;2024-03-02T02:44:26;19.70;87.00
18101;DHT22;9177;49.156;8.142;2024-03-02T02:46:53;19.70;87.00
18101;DHT22;9177;49.156;8.142;2024-03-02T02:49:20;19.70;87.00
18101;DHT22;9177;49.156;8.142;2024-03-02T02:51:47;19.70;87.00
18101;DHT22;9177;49.156;8.142;2024-03-02T02:54:13;19.70;86.90
18101;DHT22;9177;49.156;8.142;2024-03-02T02:56:42;19.70;86.90
18101;DHT22;9177;49.156;8.142;2024-03-02T02:59:09;19.70;86.90
18101;DHT22;9177;49.156;8.142;2024-03-02T03:01:36;19.70;86.90
18101;DHT22;9177;49.156;8.142;2024-03-02T03:04:03;19.70;86.80
18101;DHT22;9177;49.156;8.142;2024-03-02T03:06:30;19.70;86.80
18101;DHT22;9177;49.156;8.142;2024-03-02T03:08:57;19.70;86.70
18101;DHT22;9177;49.156;8.142;2024-03-02T03:11:23;19.70;86.80
18101;DHT22;9177;49.156;8.142;2024-03-02T03:13:53;19.70;86.70
18101;DHT22;9177;49.156;8.142;2024-03-02T03:16:20;19.70;86.70
18101;DHT22;9177;49.156;8.142;2024-03-02T03:18:47;19.70;86.70
18101;DHT22;9177;49.156;8.142;2024-03-02T03:21:17;19.60;86.70
18101;DHT22;9177;49.156;8.142;2024-03-02T03:23:43;19.60;86.70
18101;DHT22;9177;49.156;8.142;2024-03-02T03:26:10;19.60;86.60
18101;DHT22;9177;49.156;8.142;2024-03-02T03:28:37;19.60;86.60
18101;DHT22;9177;49.156;8.142;2024-03-02T03:31:06;19.60;86.60
18101;DHT22;9177;49.156;8.142;2024-03-02T03:33:32;19.60;86.60
18101;DHT22;9177;49.156;8.142;2024-03-02T03:36:00;19.60;86.60
18101;DHT22;9177;49.156;8.142;2024-03-02T03:38:28;19.60;86.60
18101;DHT22;9177;49.156;8.142;2024-03-02T03:40:55;19.60;86.50
18101;DHT22;9177;49.156;8.142;2024-03-02T03:43:22;19.60;86.50
18101;DHT22;9177;49.156;8.142;2024-03-02T03:45:49;19.60;86.50
18101;DHT22;9177;49.156;8.142;2024-03-02T03:48:17;19.60;86.50
18101;DHT22;9177;49.156;8.142;2024-03-02T03:50:45;19.60;86.40
18101;DHT22;9177;49.156;8.142;2024-03-02T03:53:12;19.60;86.30
18101;DHT22;9177;49.156;8.142;2024-03-02T03:55:40;19.60;86.40
18101;DHT22;9177;49.156;8.142;2024-03-02T03:58:07;19.60;86.40
18101;DHT22;9177;49.156;8.142;2024-03-02T04:00:33;19.60;86.40
18101;DHT22;9177;49.156;8.142;2024-03-02T04:03:00;19.60;86.30
18101;DHT22;9177;49.156;8.142;2024-03-02T04:05:29;19.60;86.30
18101;DHT22;9177;49.156;8.142;2024-03-02T04:07:56;19.60;86.20
18101;DHT22;9177;49.156;8.142;2024-03-02T04:10:22;19.60;86.30
18101;DHT22;9177;49.156;8.142;2024-03-02T04:12:50;19.60;86.20
18101;DHT22;9177;49.156;8.142;2024-03-02T04:15:17;19.60;86.20
18101;DHT22;9177;49.156;8.142;2024-03-02T04:17:45;19.60;86.20
18101;DHT22;9177;49.156;8.142;2024-03-02T04:20:12;19.60;86.20
18101;DHT22;9177;49.156;8.142;2024-03-02T04:22:40;19.60;86.20
18101;DHT22;9177;49.156;8.142;2024-03-02T04:25:08;19.60;86.20
18101;DHT22;9177;49.156;8.142;2024-03-02T04:27:35;19.60;86.10
18101;DHT22;9177;49.156;8.142;2024-03-02T04:30:03;19.60;86.10
18101;DHT22;9177;49.156;8.142;2024-03-02T04:32:30;19.60;86.10
18101;DHT22;9177;49.156;8.142;2024-03-02T04:34:58;19.60;86.00
18101;DHT22;9177;49.156;8.142;2024-03-02T04:37:24;19.60;86.10
18101;DHT22;9177;49.156;8.142;2024-03-02T04:39:53;19.50;86.00
18101;DHT22;9177;49.156;8.142;2024-03-02T04:42:19;19.50;86.00
18101;DHT22;9177;49.156;8.142;2024-03-02T04:44:46;19.50;86.40
18101;DHT22;9177;49.156;8.142;2024-03-02T04:47:13;19.50;86.00
18101;DHT22;9177;49.156;8.142;2024-03-02T04:49:40;19.50;86.00
18101;DHT22;9177;49.156;8.142;2024-03-02T04:52:07;19.50;85.90
18101;DHT22;9177;49.156;8.142;2024-03-02T04:54:34;19.50;85.90
18101;DHT22;9177;49.156;8.142;2024-03-02T04:57:23;19.50;85.90
18101;DHT22;9177;49.156;8.142;2024-03-02T04:59:50;19.50;86.00
18101;DHT22;9177;49.156;8.142;2024-03-02T05:02:16;19.60;85.90
18101;DHT22;9177;49.156;8.142;2024-03-02T05:04:43;19.50;85.80
18101;DHT22;9177;49.156;8.142;2024-03-02T05:07:10;19.50;85.80
18101;DHT22;9177;49.156;8.142;2024-03-02T05:09:37;19.50;85.80
18101;DHT22;9177;49.156;8.142;2024-03-02T05:12:05;19.50;85.80
18101;DHT22;9177;49.156;8.142;2024-03-02T05:14:50;19.50;85.80
18101;DHT22;9177;49.156;8.142;2024-03-02T05:17:17;19.50;85.80
18101;DHT22;9177;49.156;8.142;2024-03-02T05:19:44;19.50;85.80
18101;DHT22;9177;49.156;8.142;2024-03-02T05:22:11;19.50;85.80
18101;DHT22;9177;49.156;8.142;2024-03-02T05:24:37;19.50;85.80
18101;DHT22;9177;49.156;8.142;2024-03-02T05:27:05;19.50;85.80
18101;DHT22;9177;49.156;8.142;2024-03-02T05:29:33;19.50;85.80
18101;DHT22;9177;49.156;8.142;2024-03-02T05:32:01;19.50;85.70
18101;DHT22;9177;49.156;8.142;2024-03-02T05:34:27;19.50;85.80
18101;DHT22;9177;49.156;8.142;2024-03-02T05:36:54;19.50;85.80
18101;DHT22;9177;49.156;8.142;2024-03-02T05:39:21;19.50;85.80
18101;DHT22;9177;49.156;8.142;2024-03-02T05:41:48;19.50;85.90
18101;DHT22;9177;49.156;8.142;2024-03-02T05:44:15;19.50;85.90
18101;DHT22;9177;49.156;8.142;2024-03-02T05:46:42;19.50;85.80
18101;DHT22;9177;49.156;8.142;2024-03-02T05:49:10;19.50;85.80
18101;DHT22;9177;49.156;8.142;2024-03-02T05:51:37;19.50;85.80
18101;DHT22;9177;49.156;8.142;2024-03-02T05:54:04;19.50;86.00
18101;DHT22;9177;49.156;8.142;2024-03-02T05:56:31;19.50;86.00
18101;DHT22;9177;49.156;8.142;2024-03-02T05:58:58;19.50;85.80
18101;DHT22;9177;49.156;8.142;2024-03-02T06:01:38;19.50;85.90
18101;DHT22;9177;49.156;8.142;2024-03-02T06:04:05;19.50;85.80
18101;DHT22;9177;49.156;8.142;2024-03-02T06:06:33;19.50;85.80
18101;DHT22;9177;49.156;8.142;2024-03-02T06:09:00;19.50;85.80
18101;DHT22;9177;49.156;8.142;2024-03-02T06:11:28;19.50;85.80
18101;DHT22;9177;49.156;8.142;2024-03-02T06:13:54;19.50;85.80
18101;DHT22;9177;49.156;8.142;2024-03-02T06:16:21;19.50;85.80
18101;DHT22;9177;49.156;8.142;2024-03-02T06:18:48;19.50;85.80
18101;DHT22;9177;49.156;8.142;2024-03-02T06:21:15;19.50;85.80
18101;DHT22;9177;49.156;8.142;2024-03-02T06:23:45;19.50;85.80
18101;DHT22;9177;49.156;8.142;2024-03-02T06:26:12;19.50;85.80
18101;DHT22;9177;49.156;8.142;2024-03-02T06:28:39;19.50;85.80
18101;DHT22;9177;49.156;8.142;2024-03-02T06:31:05;19.50;85.80
18101;DHT22;9177;49.156;8.142;2024-03-02T06:33:32;19.50;85.80
18101;DHT22;9177;49.156;8.142;2024-03-02T06:35:59;19.50;85.80
18101;DHT22;9177;49.156;8.142;2024-03-02T06:38:25;19.50;85.80
18101;DHT22;9177;49.156;8.142;2024-03-02T06:40:54;19.50;85.80
18101;DHT22;9177;49.156;8.142;2024-03-02T06:43:21;19.50;85.90
18101;DHT22;9177;49.156;8.142;2024-03-02T06:45:49;19.50;86.70
18101;DHT22;9177;49.156;8.142;2024-03-02T06:48:16;19.50;85.80
18101;DHT22;9177;49.156;8.142;2024-03-02T06:50:45;19.50;85.90
18101;DHT22;9177;49.156;8.142;2024-03-02T06:53:12;19.50;85.90
18101;DHT22;9177;49.156;8.142;2024-03-02T06:55:43;19.50;86.00
18101;DHT22;9177;49.156;8.142;2024-03-02T06:58:13;19.50;85.90
18101;DHT22;9177;49.156;8.142;2024-03-02T07:00:40;19.50;85.90
18101;DHT22;9177;49.156;8.142;2024-03-02T07:03:07;19.50;86.00
18101;DHT22;9177;49.156;8.142;2024-03-02T07:05:35;19.50;86.00
18101;DHT22;9177;49.156;8.142;2024-03-02T07:08:02;19.60;86.00
18101;DHT22;9177;49.156;8.142;2024-03-02T07:10:30;19.60;85.90
18101;DHT22;9177;49.156;8.142;2024-03-02T07:12:57;19.60;85.90
18101;DHT22;9177;49.156;8.142;2024-03-02T07:15:25;19.50;85.80
18101;DHT22;9177;49.156;8.142;2024-03-02T07:18:20;19.50;85.80
18101;DHT22;9177;49.156;8.142;2024-03-02T07:20:47;19.50;85.80
18101;DHT22;9177;49.156;8.142;2024-03-02T07:23:15;19.50;85.80
18101;DHT22;9177;49.156;8.142;2024-03-02T07:25:42;19.50;85.90
18101;DHT22;9177;49.156;8.142;2024-03-02T07:28:09;19.50;85.90
18101;DHT22;9177;49.156;8.142;2024-03-02T07:30:37;19.50;86.70
18101;DHT22;9177;49.156;8.142;2024-03-02T07:33:04;19.50;85.90
18101;DHT22;9177;49.156;8.142;2024-03-02T07:35:31;19.50;85.90
18101;DHT22;9177;49.156;8.142;2024-03-02T07:37:59;19.50;85.90
18101;DHT22;9177;49.156;8.142;2024-03-02T07:40:26;19.50;86.00
18101;DHT22;9177;49.156;8.142;2024-03-02T07:42:53;19.50;85.90
18101;DHT22;9177;49.156;8.142;2024-03-02T07:45:20;19.50;86.00
18101;DHT22;9177;49.156;8.142;2024-03-02T07:47:48;19.50;86.00
18101;DHT22;9177;49.156;8.142;2024-03-02T07:50:15;19.50;86.00
18101;DHT22;9177;49.156;8.142;2024-03-02T07:52:42;19.50;86.00
18101;DHT22;9177;49.156;8.142;2024-03-02T07:55:09;19.50;86.00
18101;DHT22;9177;49.156;8.142;2024-03-02T07:57:36;19.50;86.10
18101;DHT22;9177;49.156;8.142;2024-03-02T08:00:03;19.50;86.10
18101;DHT22;9177;49.156;8.142;2024-03-02T08:02:30;19.50;86.10
18101;DHT22;9177;49.156;8.142;2024-03-02T08:04:59;19.60;86.20
18101;DHT22;9177;49.156;8.142;2024-03-02T08:07:26;19.60;86.20
18101;DHT22;9177;49.156;8.142;2024-03-02T08:09:53;19.60;86.20
18101;DHT22;9177;49.156;8.142;2024-03-02T08:12:20;19.60;86.20
18101;DHT22;9177;49.156;8.142;2024-03-02T08:14:49;19.60;86.20
18101;DHT22;9177;49.156;8.142;2024-03-02T08:17:16;19.60;86.20
18101;DHT22;9177;49.156;8.142;2024-03-02T08:19:43;19.70;86.20
18101;DHT22;9177;49.156;8.142;2024-03-02T08:22:11;19.70;86.10
18101;DHT22;9177;49.156;8.142;2024-03-02T08:24:38;19.70;86.00
18101;DHT22;9177;49.156;8.142;2024-03-02T08:27:05;19.80;86.00
18101;DHT22;9177;49.156;8.142;2024-03-02T08:29:32;19.80;85.90
18101;DHT22;9177;49.156;8.142;2024-03-02T08:31:59;19.80;85.90
18101;DHT22;9177;49.156;8.142;2024-03-02T08:34:26;19.80;85.90
18101;DHT22;9177;49.156;8.142;2024-03-02T08:36:53;19.80;85.90
18101;DHT22;9177;49.156;8.142;2024-03-02T08:39:21;19.80;85.90
18101;DHT22;9177;49.156;8.142;2024-03-02T08:41:48;19.80;85.80
18101;DHT22;9177;49.156;8.142;2024-03-02T08:44:16;19.90;85.90
18101;DHT22;9177;49.156;8.142;2024-03-02T08:46:44;19.90;86.60
18101;DHT22;9177;49.156;8.142;2024-03-02T08:49:11;19.90;85.80
18101;DHT22;9177;49.156;8.142;2024-03-02T08:51:38;19.90;85.80
18101;DHT22;9177;49.156;8.142;2024-03-02T08:54:05;19.90;85.80
18101;DHT22;9177;49.156;8.142;2024-03-02T08:56:33;19.90;86.00
18101;DHT22;9177;49.156;8.142;2024-03-02T08:59:01;20.00;85.80
18101;DHT22;9177;49.156;8.142;2024-03-02T09:01:28;20.00;85.80
18101;DHT22;9177;49.156;8.142;2024-03-02T09:03:55;20.00;85.70
18101;DHT22;9177;49.156;8.142;2024-03-02T09:06:22;20.00;85.70
18101;DHT22;9177;49.156;8.142;2024-03-02T09:08:49;20.10;85.70
18101;DHT22;9177;49.156;8.142;2024-03-02T09:11:17;20.10;85.70
18101;DHT22;9177;49.156;8.142;2024-03-02T09:13:46;20.10;85.70
18101;DHT22;9177;49.156;8.142;2024-03-02T09:16:13;20.10;85.60
18101;DHT22;9177;49.156;8.142;2024-03-02T09:18:40;20.20;85.50
18101;DHT22;9177;49.156;8.142;2024-03-02T09:21:06;20.20;85.50
18101;DHT22;9177;49.156;8.142;2024-03-02T09:23:33;20.20;85.30
18101;DHT22;9177;49.156;8.142;2024-03-02T09:26:00;20.20;85.30
18101;DHT22;9177;49.156;8.142;2024-03-02T09:28:28;20.20;85.30
18101;DHT22;9177;49.156;8.142;2024-03-02T09:30:55;20.20;85.30
18101;DHT22;9177;49.156;8.142;2024-03-02T09:33:22;20.20;85.40
18101;DHT22;9177;49.156;8.142;2024-03-02T09:35:49;20.20;85.50
18101;DHT22;9177;49.156;8.142;2024-03-02T09:38:16;20.20;85.50
18101;DHT22;9177;49.156;8.142;2024-03-02T09:40:43;20.20;85.40
18101;DHT22;9177;49.156;8.142;2024-03-02T09:43:10;20.20;86.20
18101;DHT22;9177;49.156;8.142;2024-03-02T09:45:37;20.20;85.30
18101;DHT22;9177;49.156;8.142;2024-03-02T09:48:07;20.20;85.30
18101;DHT22;9177;49.156;8.142;2024-03-02T09:50:34;20.20;85.40
18101;DHT22;9177;49.156;8.142;2024-03-02T09:53:01;20.20;85.30
18101;DHT22;9177;49.156;8.142;2024-03-02T09:55:28;20.30;85.30
18101;DHT22;9177;49.156;8.142;2024-03-02T09:57:55;20.30;85.30
18101;DHT22;9177;49.156;8.142;2024-03-02T10:00:22;20.30;85.30
18101;DHT22;9177;49.156;8.142;2024-03-02T10:02:50;20.40;85.30
18101;DHT22;9177;49.156;8.142;2024-03-02T10:05:25;20.30;85.30
18101;DHT22;9177;49.156;8.142;2024-03-02T10:07:59;20.30;85.30
18101;DHT22;9177;49.156;8.142;2024-03-02T10:10:35;20.30;85.40
18101;DHT22;9177;49.156;8.142;2024-03-02T10:13:06;20.30;85.50
18101;DHT22;9177;49.156;8.142;2024-03-02T10:15:35;20.30;85.70
18101;DHT22;9177;49.156;8.142;2024-03-02T10:18:03;20.30;85.80
18101;DHT22;9177;49.156;8.142;2024-03-02T10:20:32;20.20;85.80
18101;DHT22;9177;49.156;8.142;2024-03-02T10:23:10;20.20;86.20
18101;DHT22;9177;49.156;8.142;2024-03-02T10:25:38;20.20;86.30
18101;DHT22;9177;49.156;8.142;2024-03-02T10:28:05;20.20;86.50
18101;DHT22;9177;49.156;8.142;2024-03-02T10:30:32;20.20;86.60
18101;DHT22;9177;49.156;8.142;2024-03-02T10:33:00;20.20;86.70
18101;DHT22;9177;49.156;8.142;2024-03-02T10:35:27;20.30;86.90
18101;DHT22;9177;49.156;8.142;2024-03-02T10:37:58;20.30;87.20
18101;DHT22;9177;49.156;8.142;2024-03-02T10:40:27;20.30;86.70
18101;DHT22;9177;49.156;8.142;2024-03-02T10:42:54;20.40;86.60
18101;DHT22;9177;49.156;8.142;2024-03-02T10:45:21;20.40;86.50
18101;DHT22;9177;49.156;8.142;2024-03-02T10:47:50;20.40;86.40
18101;DHT22;9177;49.156;8.142;2024-03-02T10:50:17;20.50;86.40
18101;DHT22;9177;49.156;8.142;2024-03-02T10:52:45;20.50;86.20
18101;DHT22;9177;49.156;8.142;2024-03-02T10:55:13;20.50;86.20
18101;DHT22;9177;49.156;8.142;2024-03-02T10:57:50;20.50;86.00
18101;DHT22;9177;49.156;8.142;2024-03-02T11:00:18;20.60;86.00
18101;DHT22;9177;49.156;8.142;2024-03-02T11:02:51;20.60;85.90
18101;DHT22;9177;49.156;8.142;2024-03-02T11:05:26;20.70;85.80
18101;DHT22;9177;49.156;8.142;2024-03-02T11:07:57;20.70;85.70
18101;DHT22;9177;49.156;8.142;2024-03-02T11:10:31;20.70;85.50
18101;DHT22;9177;49.156;8.142;2024-03-02T11:13:02;20.80;85.40
18101;DHT22;9177;49.156;8.142;2024-03-02T11:15:30;20.70;85.20
18101;DHT22;9177;49.156;8.142;2024-03-02T11:17:58;20.80;85.20
18101;DHT22;9177;49.156;8.142;2024-03-02T11:20:25;20.80;85.20
18101;DHT22;9177;49.156;8.142;2024-03-02T11:22:54;20.80;85.20
18101;DHT22;9177;49.156;8.142;2024-03-02T11:25:25;20.70;85.10
18101;DHT22;9177;49.156;8.142;2024-03-02T11:28:04;20.70;85.20
18101;DHT22;9177;49.156;8.142;2024-03-02T11:30:50;20.70;85.20
18101;DHT22;9177;49.156;8.142;2024-03-02T11:33:23;20.80;85.10
18101;DHT22;9177;49.156;8.142;2024-03-02T11:35:52;20.80;84.90
18101;DHT22;9177;49.156;8.142;2024-03-02T11:38:19;20.80;84.80
18101;DHT22;9177;49.156;8.142;2024-03-02T11:40:47;20.90;84.70
18101;DHT22;9177;49.156;8.142;2024-03-02T11:43:15;20.90;84.70
18101;DHT22;9177;49.156;8.142;2024-03-02T11:45:43;21.00;84.60
18101;DHT22;9177;49.156;8.142;2024-03-02T11:48:14;21.00;84.40
18101;DHT22;9177;49.156;8.142;2024-03-02T11:50:47;21.10;84.10
18101;DHT22;9177;49.156;8.142;2024-03-02T11:53:16;21.10;83.90
18101;DHT22;9177;49.156;8.142;2024-03-02T11:55:45;21.20;83.90
18101;DHT22;9177;49.156;8.142;2024-03-02T11:58:12;21.20;83.90
18101;DHT22;9177;49.156;8.142;2024-03-02T12:00:41;21.30;83.90
18101;DHT22;9177;49.156;8.142;2024-03-02T12:03:09;21.30;83.70
18101;DHT22;9177;49.156;8.142;2024-03-02T12:05:39;21.40;83.60
18101;DHT22;9177;49.156;8.142;2024-03-02T12:08:06;21.50;83.60
18101;DHT22;9177;49.156;8.142;2024-03-02T12:10:34;21.50;83.50
18101;DHT22;9177;49.156;8.142;2024-03-02T12:13:04;21.50;83.50
18101;DHT22;9177;49.156;8.142;2024-03-02T12:15:32;21.60;83.60
18101;DHT22;9177;49.156;8.142;2024-03-02T12:18:05;21.60;83.50
18101;DHT22;9177;49.156;8.142;2024-03-02T12:20:33;21.60;83.50
18101;DHT22;9177;49.156;8.142;2024-03-02T12:23:01;21.60;83.50
18101;DHT22;9177;49.156;8.142;2024-03-02T12:25:31;21.60;83.40
18101;DHT22;9177;49.156;8.142;2024-03-02T12:28:01;21.70;83.40
18101;DHT22;9177;49.156;8.142;2024-03-02T12:30:30;21.70;83.40
18101;DHT22;9177;49.156;8.142;2024-03-02T12:32:57;21.80;83.40
18101;DHT22;9177;49.156;8.142;2024-03-02T12:35:26;21.80;83.30
18101;DHT22;9177;49.156;8.142;2024-03-02T12:37:54;21.80;83.20
18101;DHT22;9177;49.156;8.142;2024-03-02T12:40:21;21.90;83.10
18101;DHT22;9177;49.156;8.142;2024-03-02T12:42:49;21.90;83.00
18101;DHT22;9177;49.156;8.142;2024-03-02T12:45:16;22.00;83.00
18101;DHT22;9177;49.156;8.142;2024-03-02T12:47:51;22.00;82.80
18101;DHT22;9177;49.156;8.142;2024-03-02T12:50:18;22.10;83.00
18101;DHT22;9177;49.156;8.142;2024-03-02T12:52:52;22.10;83.00
18101;DHT22;9177;49.156;8.142;2024-03-02T12:55:20;22.10;83.70
18101;DHT22;9177;49.156;8.142;2024-03-02T12:57:50;22.10;82.90
18101;DHT22;9177;49.156;8.142;2024-03-02T13:00:18;22.10;83.00
18101;DHT22;9177;49.156;8.142;2024-03-02T13:02:46;22.10;83.30
18101;DHT22;9177;49.156;8.142;2024-03-02T13:05:13;22.20;84.20
18101;DHT22;9177;49.156;8.142;2024-03-02T13:07:40;22.10;83.90
18101;DHT22;9177;49.156;8.142;2024-03-02T13:10:09;22.20;84.00
18101;DHT22;9177;49.156;8.142;2024-03-02T13:12:37;22.20;84.10
18101;DHT22;9177;49.156;8.142;2024-03-02T13:15:05;22.10;84.20
18101;DHT22;9177;49.156;8.142;2024-03-02T13:17:34;22.20;84.20
18101;DHT22;9177;49.156;8.142;2024-03-02T13:20:02;22.10;84.10
18101;DHT22;9177;49.156;8.142;2024-03-02T13:22:33;22.10;84.20
18101;DHT22;9177;49.156;8.142;2024-03-02T13:25:00;22.20;84.20
18101;DHT22;9177;49.156;8.142;2024-03-02T13:27:30;22.20;84.10
18101;DHT22;9177;49.156;8.142;2024-03-02T13:29:58;22.20;84.30
18101;DHT22;9177;49.156;8.142;2024-03-02T13:32:25;22.30;84.70
18101;DHT22;9177;49.156;8.142;2024-03-02T13:34:52;22.30;84.90
18101;DHT22;9177;49.156;8.142;2024-03-02T13:37:20;22.30;85.10
18101;DHT22;9177;49.156;8.142;2024-03-02T13:39:47;22.30;84.40
18101;DHT22;9177;49.156;8.142;2024-03-02T13:42:14;22.30;84.00
18101;DHT22;9177;49.156;8.142;2024-03-02T13:44:43;22.20;84.70
18101;DHT22;9177;49.156;8.142;2024-03-02T13:47:11;22.20;83.90
18101;DHT22;9177;49.156;8.142;2024-03-02T13:49:38;22.20;84.00
18101;DHT22;9177;49.156;8.142;2024-03-02T13:52:09;22.20;84.20
18101;DHT22;9177;49.156;8.142;2024-03-02T13:54:38;22.20;84.10
18101;DHT22;9177;49.156;8.142;2024-03-02T13:57:06;22.20;84.10
18101;DHT22;9177;49.156;8.142;2024-03-02T13:59:33;22.20;84.20
18101;DHT22;9177;49.156;8.142;2024-03-02T14:02:02;22.10;84.10
18101;DHT22;9177;49.156;8.142;2024-03-02T14:04:30;22.10;84.40
18101;DHT22;9177;49.156;8.142;2024-03-02T14:06:58;22.10;84.60
18101;DHT22;9177;49.156;8.142;2024-03-02T14:09:25;22.00;84.90
18101;DHT22;9177;49.156;8.142;2024-03-02T14:11:52;22.00;84.80
18101;DHT22;9177;49.156;8.142;2024-03-02T14:14:19;21.90;85.30
18101;DHT22;9177;49.156;8.142;2024-03-02T14:16:46;21.90;86.20
18101;DHT22;9177;49.156;8.142;2024-03-02T14:19:15;21.90;85.40
18101;DHT22;9177;49.156;8.142;2024-03-02T14:21:42;21.90;85.30
18101;DHT22;9177;49.156;8.142;2024-03-02T14:24:09;21.90;85.50
18101;DHT22;9177;49.156;8.142;2024-03-02T14:26:36;21.90;86.00
18101;DHT22;9177;49.156;8.142;2024-03-02T14:29:03;21.80;85.90
18101;DHT22;9177;49.156;8.142;2024-03-02T14:31:32;21.80;86.20
18101;DHT22;9177;49.156;8.142;2024-03-02T14:34:00;21.70;86.30
18101;DHT22;9177;49.156;8.142;2024-03-02T14:36:28;21.70;86.50
18101;DHT22;9177;49.156;8.142;2024-03-02T14:38:56;21.60;86.50
18101;DHT22;9177;49.156;8.142;2024-03-02T14:41:24;21.60;86.60
18101;DHT22;9177;49.156;8.142;2024-03-02T14:43:51;21.60;86.50
18101;DHT22;9177;49.156;8.142;2024-03-02T14:46:18;21.60;86.60
18101;DHT22;9177;49.156;8.142;2024-03-02T14:48:46;21.60;87.00
18101;DHT22;9177;49.156;8.142;2024-03-02T14:51:13;21.60;87.30
18101;DHT22;9177;49.156;8.142;2024-03-02T14:53:41;21.50;87.70
18101;DHT22;9177;49.156;8.142;2024-03-02T14:56:08;21.50;87.80
18101;DHT22;9177;49.156;8.142;2024-03-02T14:58:35;21.50;88.00
18101;DHT22;9177;49.156;8.142;2024-03-02T15:01:03;21.50;88.50
18101;DHT22;9177;49.156;8.142;2024-03-02T15:03:31;21.40;88.50
18101;DHT22;9177;49.156;8.142;2024-03-02T15:05:59;21.40;89.40
18101;DHT22;9177;49.156;8.142;2024-03-02T15:08:25;21.40;88.30
18101;DHT22;9177;49.156;8.142;2024-03-02T15:10:54;21.40;88.70
18101;DHT22;9177;49.156;8.142;2024-03-02T15:13:23;21.40;89.10
18101;DHT22;9177;49.156;8.142;2024-03-02T15:15:50;21.40;89.10
18101;DHT22;9177;49.156;8.142;2024-03-02T15:18:18;21.40;89.20
18101;DHT22;9177;49.156;8.142;2024-03-02T15:20:45;21.30;89.20
18101;DHT22;9177;49.156;8.142;2024-03-02T15:23:11;21.30;89.50
18101;DHT22;9177;49.156;8.142;2024-03-02T15:25:39;21.30;89.50
18101;DHT22;9177;49.156;8.142;2024-03-02T15:28:07;21.20;89.20
18101;DHT22;9177;49.156;8.142;2024-03-02T15:30:34;21.20;89.90
18101;DHT22;9177;49.156;8.142;2024-03-02T15:33:02;21.20;89.70
18101;DHT22;9177;49.156;8.142;2024-03-02T15:35:28;21.20;89.50
18101;DHT22;9177;49.156;8.142;2024-03-02T15:37:56;21.20;89.50
18101;DHT22;9177;49.156;8.142;2024-03-02T15:40:23;21.10;89.40
18101;DHT22;9177;49.156;8.142;2024-03-02T15:42:50;21.10;89.50
18101;DHT22;9177;49.156;8.142;2024-03-02T15:45:18;21.00;89.50
18101;DHT22;9177;49.156;8.142;2024-03-02T15:47:45;21.00;89.40
18101;DHT22;9177;49.156;8.142;2024-03-02T15:50:12;21.00;89.50